Time;durP1;ratioP1;P1;durP2;ratioP2;P2;SDS_P1;SDS_P2;PMS_P1;PMS_P2;Temp;Humidity;BMP_temperature;BMP_pressure;BME280_temperature;BME280_humidity;BME280_pressure;Samples;Min_cycle;Max_cycle;Signal;HPM_P1;HPM_P2
2022/04/04 00:00:15;;;;;;;;;;;;;;;21.35;38.03;95331.56;2033511;29;1013;-68
2022/04/04 00:01:17;;;;;;;;;;;;;;;21.38;37.47;95334.66;2033069;29;1671;-69
2022/04/04 00:02:19;;;;;;;;;;;;;;;21.41;37.86;95334.22;2033240;29;1024;-68
2022/04/04 00:03:20;;;;;;;;;;;;;;;21.43;37.52;95331.34;2034741;29;1533;-69
2022/04/04 00:04:23;;;;;;;;;;;;;;;21.44;37.57;95325.78;2033680;29;1713;-69
2022/04/04 00:05:24;;;;;;;;;;;;;;;21.43;37.42;95329.50;2021904;29;1281;-68
2022/04/04 00:06:29;;;;;;;;;;;;;;;21.41;37.53;95320.03;2026109;29;1056;-68
2022/04/04 00:07:31;;;;;;;;;;;;;;;21.42;37.60;95327.03;2033417;29;1494;-68
2022/04/04 00:08:36;;;;;;;;;;;;;;;21.42;37.55;95327.84;2033757;29;1222;-68
2022/04/04 00:09:37;;;;;;;;;;;;;;;21.42;37.63;95327.84;2033435;29;1511;-68
2022/04/04 00:10:39;;;;;;;;;;;;;;;21.43;37.48;95323.34;2033051;29;1509;-68
2022/04/04 00:11:40;;;;;;;;;;;;;;;21.44;37.68;95328.47;2033971;29;1104;-68
2022/04/04 00:12:42;;;;;;;;;;;;;;;21.43;37.60;95331.34;2033143;29;1229;-69
2022/04/04 00:13:44;;;;;;;;;;;;;;;21.45;37.33;95337.28;2032464;29;1464;-68
2022/04/04 00:14:45;;;;;;;;;;;;;;;21.44;37.53;95324.97;2033801;29;972;-69
2022/04/04 00:15:47;;;;;;;;;;;;;;;21.43;37.58;95328.69;2028748;29;1519;-70
2022/04/04 00:16:49;;;;;;;;;;;;;;;21.44;37.28;95328.47;2032328;29;1166;-65
2022/04/04 00:17:51;;;;;;;;;;;;;;;21.43;37.82;95320.66;2032979;29;1013;-65
2022/04/04 00:18:53;;;;;;;;;;;;;;;21.41;37.46;95323.53;2032587;29;1717;-66
2022/04/04 00:19:54;;;;;;;;;;;;;;;21.40;37.51;95321.09;2031604;29;2014;-68
2022/04/04 00:20:56;;;;;;;;;;;;;;;21.40;37.59;95318.41;2031773;29;1485;-65
2022/04/04 00:21:58;;;;;;;;;;;;;;;21.39;37.97;95325.59;2032656;29;1505;-66
2022/04/04 00:22:59;;;;;;;;;;;;;;;21.39;37.70;95324.75;2032620;29;1168;-66
2022/04/04 00:24:01;;;;;;;;;;;;;;;21.40;37.87;95326.44;2032557;29;1668;-64
2022/04/04 00:25:03;;;;;;;;;;;;;;;21.39;37.92;95330.13;2033133;29;1613;-64
2022/04/04 00:26:05;;;;;;;;;;;;;;;21.39;37.72;95324.75;2033566;29;969;-66
2022/04/04 00:27:07;;;;;;;;;;;;;;;21.39;37.57;95330.13;2028506;29;1678;-66
2022/04/04 00:28:09;;;;;;;;;;;;;;;21.41;37.65;95336.09;2032764;29;1626;-68
2022/04/04 00:29:11;;;;;;;;;;;;;;;21.41;37.70;95331.56;2033695;29;1000;-69
2022/04/04 00:30:12;;;;;;;;;;;;;;;21.42;37.93;95332.38;2033261;29;1069;-68
2022/04/04 00:31:14;;;;;;;;;;;;;;;21.43;37.66;95334.03;2032885;29;1080;-68
2022/04/04 00:32:16;;;;;;;;;;;;;;;21.43;37.86;95331.34;2040886;29;1048;-68
2022/04/04 00:33:17;;;;;;;;;;;;;;;21.44;37.83;95333.81;2025664;29;1652;-68
2022/04/04 00:34:20;;;;;;;;;;;;;;;21.45;37.76;95332.78;2025015;29;1117;-68
2022/04/04 00:35:21;;;;;;;;;;;;;;;21.44;37.86;95324.97;2026226;29;1060;-68
2022/04/04 00:36:23;;;;;;;;;;;;;;;21.45;37.80;95327.44;2025697;29;1109;-68
2022/04/04 00:37:24;;;;;;;;;;;;;;;21.45;37.55;95330.13;2031224;29;1678;-68
2022/04/04 00:38:26;;;;;;;;;;;;;;;21.47;37.66;95334.44;2029365;29;1558;-68
2022/04/04 00:39:27;;;;;;;;;;;;;;;21.45;37.91;95330.13;2032973;29;1036;-68
2022/04/04 00:40:30;;;;;;;;;;;;;;;21.47;37.79;95334.44;2033455;29;988;-68
2022/04/04 00:41:31;;;;;;;;;;;;;;;21.45;37.64;95331.94;2031571;29;1526;-65
2022/04/04 00:42:33;;;;;;;;;;;;;;;21.44;37.73;95331.13;2033505;29;1109;-65
2022/04/04 00:43:35;;;;;;;;;;;;;;;21.44;37.91;95335.66;2032467;29;1344;-67
2022/04/04 00:44:36;;;;;;;;;;;;;;;21.42;37.72;95333.19;2033162;29;1028;-70
2022/04/04 00:45:42;;;;;;;;;;;;;;;21.43;37.89;95328.69;2033787;29;1105;-69
2022/04/04 00:46:44;;;;;;;;;;;;;;;21.43;37.82;95332.16;2032924;29;1649;-69
2022/04/04 00:47:46;;;;;;;;;;;;;;;21.43;37.74;95332.16;2032404;29;1621;-68
2022/04/04 00:48:48;;;;;;;;;;;;;;;21.44;37.66;95330.31;2028865;29;1137;-71
2022/04/04 00:49:49;;;;;;;;;;;;;;;21.44;37.91;95324.97;2032319;29;1634;-69
2022/04/04 00:50:51;;;;;;;;;;;;;;;21.44;37.80;95333.81;2032702;29;1456;-71
2022/04/04 00:51:52;;;;;;;;;;;;;;;21.44;37.73;95335.66;2033425;29;1698;-70
2022/04/04 00:52:54;;;;;;;;;;;;;;;21.45;37.85;95331.94;2032483;29;1540;-69
2022/04/04 00:53:55;;;;;;;;;;;;;;;21.45;37.75;95329.28;2033229;29;1196;-69
2022/04/04 00:54:57;;;;;;;;;;;;;;;21.45;37.95;95326.59;2032552;29;1113;-70
2022/04/04 00:55:59;;;;;;;;;;;;;;;21.45;37.78;95331.94;2025590;29;1338;-73
2022/04/04 00:57:01;;;;;;;;;;;;;;;21.46;37.88;95330.94;2032400;29;1062;-69
2022/04/04 00:58:04;;;;;;;;;;;;;;;21.46;37.72;95333.59;2031856;29;1543;-62
2022/04/04 00:59:10;;;;;;;;;;;;;;;21.48;38.03;95325.38;2032845;29;1013;-63
2022/04/04 01:00:11;;;;;;;;;;;;;;;21.54;37.64;95320.00;2028746;29;1995;-65
2022/04/04 01:01:13;;;;;;;;;;;;;;;21.53;37.73;95329.06;2033661;29;1381;-65
2022/04/04 01:02:15;;;;;;;;;;;;;;;21.55;37.34;95331.53;2032734;29;1501;-64
2022/04/04 01:03:17;;;;;;;;;;;;;;;21.49;37.77;95327.03;2032610;29;1653;-66
2022/04/04 01:04:19;;;;;;;;;;;;;;;21.48;37.82;95325.38;2032840;29;1697;-66
2022/04/04 01:05:21;;;;;;;;;;;;;;;21.46;37.72;95328.25;2033102;29;1627;-65
2022/04/04 01:06:23;;;;;;;;;;;;;;;21.45;37.58;95334.63;2033073;29;1583;-65
2022/04/04 01:07:24;;;;;;;;;;;;;;;21.48;37.66;95333.38;2032517;29;1172;-64
2022/04/04 01:08:26;;;;;;;;;;;;;;;21.47;37.60;95335.25;2033243;29;1230;-65
2022/04/04 01:09:28;;;;;;;;;;;;;;;21.47;37.89;95329.06;2033132;29;1652;-64
2022/04/04 01:10:30;;;;;;;;;;;;;;;21.46;37.94;95330.94;2032874;29;1373;-65
2022/04/04 01:11:32;;;;;;;;;;;;;;;21.44;37.94;95331.13;2030017;29;1067;-65
2022/04/04 01:12:34;;;;;;;;;;;;;;;21.43;38.02;95329.50;2033278;29;1141;-65
2022/04/04 01:13:36;;;;;;;;;;;;;;;21.44;37.66;95333.00;2032379;29;1462;-66
2022/04/04 01:14:40;;;;;;;;;;;;;;;21.45;37.97;95334.63;2032069;29;1455;-65
2022/04/04 01:15:41;;;;;;;;;;;;;;;21.44;38.09;95331.13;2032788;29;1007;-65
2022/04/04 01:16:43;;;;;;;;;;;;;;;21.45;37.74;95329.28;2032795;29;1249;-65
2022/04/04 01:17:45;;;;;;;;;;;;;;;21.44;37.78;95323.09;2032709;29;1188;-64
2022/04/04 01:18:47;;;;;;;;;;;;;;;21.44;37.91;95324.97;2032532;29;1678;-64
2022/04/04 01:19:49;;;;;;;;;;;;;;;21.45;38.05;95329.28;2033406;29;1129;-65
2022/04/04 01:20:51;;;;;;;;;;;;;;;21.45;37.99;95321.25;2033031;29;1910;-64
2022/04/04 01:21:53;;;;;;;;;;;;;;;21.43;37.79;95323.34;2029072;29;1388;-66
2022/04/04 01:22:55;;;;;;;;;;;;;;;21.44;37.86;95311.59;2032897;29;1423;-65
2022/04/04 01:23:59;;;;;;;;;;;;;;;21.43;37.79;95318.00;2032366;29;1664;-65
2022/04/04 01:25:04;;;;;;;;;;;;;;;21.42;38.03;95311.78;2024883;29;1526;-64
2022/04/04 01:26:09;;;;;;;;;;;;;;;21.42;38.07;95314.47;2024742;29;1017;-65
2022/04/04 01:27:11;;;;;;;;;;;;;;;21.44;37.99;95319.63;2025644;29;1071;-64
2022/04/04 01:28:13;;;;;;;;;;;;;;;21.44;37.78;95323.09;2028260;29;1522;-64
2022/04/04 01:29:15;;;;;;;;;;;;;;;21.42;37.96;95322.50;2033180;29;996;-65
2022/04/04 01:30:16;;;;;;;;;;;;;;;21.42;37.96;95319.81;2032632;29;1506;-66
2022/04/04 01:31:18;;;;;;;;;;;;;;;21.44;38.04;95322.28;2032661;29;1409;-65
2022/04/04 01:32:19;;;;;;;;;;;;;;;21.43;38.02;95324.16;2032716;29;1701;-65
2022/04/04 01:33:21;;;;;;;;;;;;;;;21.42;38.08;95319.00;2028312;29;1095;-64
2022/04/04 01:34:23;;;;;;;;;;;;;;;21.44;37.94;95319.63;2033057;29;1686;-65
2022/04/04 01:35:25;;;;;;;;;;;;;;;21.44;37.89;95324.97;2033272;29;1081;-65
2022/04/04 01:36:27;;;;;;;;;;;;;;;21.45;37.83;95323.94;2033789;29;1641;-65
2022/04/04 01:37:28;;;;;;;;;;;;;;;21.44;38.10;95324.97;2035012;29;1048;-64
2022/04/04 01:38:30;;;;;;;;;;;;;;;21.44;38.01;95327.63;2034829;29;1140;-64
2022/04/04 01:39:32;;;;;;;;;;;;;;;21.43;37.90;95331.34;2033813;29;1516;-68
2022/04/04 01:40:33;;;;;;;;;;;;;;;21.43;38.06;95328.69;2032505;29;1926;-68
2022/04/04 01:41:35;;;;;;;;;;;;;;;21.43;38.03;95318.00;2033202;29;1545;-69
2022/04/04 01:42:37;;;;;;;;;;;;;;;21.43;38.05;95326.81;2033256;29;1490;-69
2022/04/04 01:43:38;;;;;;;;;;;;;;;21.43;38.09;95321.47;2031217;29;1493;-70
2022/04/04 01:44:40;;;;;;;;;;;;;;;21.43;38.15;95320.66;2039629;29;1559;-69
2022/04/04 01:47:02;;;;;;;;;;;;;;;21.44;38.32;95324.97;2034473;29;1093;-67
2022/04/04 01:48:03;;;;;;;;;;;;;;;21.44;38.11;95325.78;2032963;29;1495;-67
2022/04/04 01:49:06;;;;;;;;;;;;;;;21.45;38.26;95327.44;2033884;29;1561;-67
2022/04/04 01:50:07;;;;;;;;;;;;;;;21.46;38.16;95328.25;2034734;29;1164;-67
2022/04/04 01:51:09;;;;;;;;;;;;;;;21.45;38.42;95329.28;2035041;29;1078;-67
2022/04/04 01:52:11;;;;;;;;;;;;;;;21.47;38.35;95327.22;2034564;29;1894;-70
2022/04/04 01:53:29;;;;;;;;;;;;;;;21.47;38.44;95329.91;2034826;29;1193;-67
2022/04/04 01:54:30;;;;;;;;;;;;;;;21.46;38.47;95333.59;2034050;29;1476;-67
2022/04/04 01:55:32;;;;;;;;;;;;;;;21.47;38.33;95332.56;2029290;29;1117;-65
2022/04/04 01:56:34;;;;;;;;;;;;;;;21.48;38.17;95330.72;2034174;29;1534;-65
2022/04/04 01:57:35;;;;;;;;;;;;;;;21.47;38.44;95329.91;2034382;29;912;-65
2022/04/04 01:58:38;;;;;;;;;;;;;;;21.47;38.35;95329.91;2033814;29;2104;-65
2022/04/04 01:59:39;;;;;;;;;;;;;;;21.47;38.34;95329.91;2034512;29;1012;-64
2022/04/04 02:00:41;;;;;;;;;;;;;;;21.47;38.43;95334.44;2033584;29;1986;-64
2022/04/04 02:01:43;;;;;;;;;;;;;;;21.48;38.53;95336.06;2034977;29;1087;-64
2022/04/04 02:02:45;;;;;;;;;;;;;;;21.47;38.63;95329.91;2033794;29;1781;-65
2022/04/04 02:03:48;;;;;;;;;;;;;;;21.49;38.50;95337.72;2034018;29;1106;-64
2022/04/04 02:04:50;;;;;;;;;;;;;;;21.48;38.73;95336.88;2033660;29;1137;-66
2022/04/04 02:05:51;;;;;;;;;;;;;;;21.48;38.65;95334.19;2029801;29;1051;-64
2022/04/04 02:06:53;;;;;;;;;;;;;;;21.48;38.54;95341.41;2033866;29;1106;-64
2022/04/04 02:07:55;;;;;;;;;;;;;;;21.48;38.60;95336.88;2025819;29;1792;-64
2022/04/04 02:08:56;;;;;;;;;;;;;;;21.48;38.43;95339.53;2032891;29;2280;-65
2022/04/04 02:09:58;;;;;;;;;;;;;;;21.49;38.52;95333.19;2034277;29;1454;-64
2022/04/04 02:11:00;;;;;;;;;;;;;;;21.48;38.63;95336.88;2033903;29;1104;-64
2022/04/04 02:12:04;;;;;;;;;;;;;;;21.48;38.73;95328.84;2034746;29;1031;-65
2022/04/04 02:13:05;;;;;;;;;;;;;;;21.49;38.74;95329.69;2034248;29;964;-64
2022/04/04 02:14:07;;;;;;;;;;;;;;;21.48;38.67;95323.50;2033460;29;1992;-66
2022/04/04 02:15:08;;;;;;;;;;;;;;;21.48;38.75;95325.38;2034482;29;1086;-65
2022/04/04 02:16:11;;;;;;;;;;;;;;;21.47;38.69;95324.53;2034329;29;1121;-65
2022/04/04 02:17:13;;;;;;;;;;;;;;;21.47;38.58;95321.88;2030254;29;1060;-65
2022/04/04 02:18:14;;;;;;;;;;;;;;;21.47;38.76;95321.88;2033923;29;1198;-65
2022/04/04 02:19:17;;;;;;;;;;;;;;;21.49;38.59;95322.50;2034853;29;1049;-64
2022/04/04 02:20:19;;;;;;;;;;;;;;;21.50;38.73;95323.31;2034491;29;1025;-65
2022/04/04 02:21:21;;;;;;;;;;;;;;;21.49;38.77;95322.50;2034436;29;1902;-65
2022/04/04 02:22:22;;;;;;;;;;;;;;;21.50;38.58;95329.47;2034221;29;1758;-65
2022/04/04 02:23:24;;;;;;;;;;;;;;;21.48;38.60;95320.00;2034105;29;1767;-67
2022/04/04 02:24:26;;;;;;;;;;;;;;;21.48;38.82;95312.81;2034868;29;1012;-65
2022/04/04 02:25:27;;;;;;;;;;;;;;;21.48;38.85;95322.69;2033878;29;1507;-64
2022/04/04 02:26:29;;;;;;;;;;;;;;;21.49;38.79;95321.69;2033301;29;1109;-65
2022/04/04 02:27:31;;;;;;;;;;;;;;;21.49;38.81;95325.16;2032537;29;1659;-66
2022/04/04 02:28:32;;;;;;;;;;;;;;;21.48;38.76;95320.84;2030996;29;1359;-66
2022/04/04 02:29:34;;;;;;;;;;;;;;;21.49;38.75;95322.50;2034814;29;1003;-65
2022/04/04 02:30:35;;;;;;;;;;;;;;;21.48;38.63;95323.50;2034371;29;1048;-65
2022/04/04 02:31:37;;;;;;;;;;;;;;;21.49;38.58;95314.47;2034349;29;1072;-66
2022/04/04 02:32:38;;;;;;;;;;;;;;;21.48;38.69;95312.81;2033346;29;1477;-65
2022/04/04 02:33:40;;;;;;;;;;;;;;;21.49;38.88;95313.66;2034411;29;1000;-65
2022/04/04 02:34:41;;;;;;;;;;;;;;;21.49;38.73;95314.47;2034354;29;1101;-64
2022/04/04 02:35:44;;;;;;;;;;;;;;;21.48;38.67;95312.81;2034382;29;989;-66
2022/04/04 02:36:45;;;;;;;;;;;;;;;21.49;38.90;95306.44;2033830;29;1729;-65
2022/04/04 02:37:47;;;;;;;;;;;;;;;21.50;38.83;95318.78;2033948;29;1614;-64
2022/04/04 02:38:48;;;;;;;;;;;;;;;21.49;38.84;95311.81;2029011;29;1192;-66
2022/04/04 02:39:50;;;;;;;;;;;;;;;21.48;38.66;95307.47;2033217;29;1785;-65
2022/04/04 02:40:53;;;;;;;;;;;;;;;21.49;38.60;95309.13;2034537;29;1976;-64
2022/04/04 02:41:55;;;;;;;;;;;;;;;21.49;38.66;95309.13;2034273;29;1083;-66
2022/04/04 02:42:56;;;;;;;;;;;;;;;21.49;38.56;95305.63;2034263;29;1654;-65
2022/04/04 02:43:58;;;;;;;;;;;;;;;21.48;38.73;95309.31;2031846;29;1503;-65
2022/04/04 02:44:59;;;;;;;;;;;;;;;21.49;38.72;95301.09;2034294;29;1016;-65
2022/04/04 02:46:01;;;;;;;;;;;;;;;21.48;38.85;95302.13;2034558;29;1051;-65
2022/04/04 02:47:03;;;;;;;;;;;;;;;21.49;38.87;95305.63;2033886;29;1721;-66
2022/04/04 02:48:05;;;;;;;;;;;;;;;21.49;38.90;95305.63;2033290;29;1574;-66
2022/04/04 02:49:06;;;;;;;;;;;;;;;21.49;38.98;95303.78;2034123;29;1161;-67
2022/04/04 02:50:08;;;;;;;;;;;;;;;21.48;38.69;95301.31;2030079;29;1077;-66
2022/04/04 02:51:10;;;;;;;;;;;;;;;21.49;38.91;95301.09;2033621;29;1009;-66
2022/04/04 02:52:12;;;;;;;;;;;;;;;21.50;38.92;95304.59;2032931;29;1543;-66
2022/04/04 02:53:14;;;;;;;;;;;;;;;21.50;38.98;95294.72;2034201;29;1695;-66
2022/04/04 02:54:15;;;;;;;;;;;;;;;21.49;39.03;95293.09;2034225;29;1033;-66
2022/04/04 02:56:41;;;;;;;;;;;;;;;21.49;39.11;95294.94;2033809;29;1120;-65
2022/04/04 02:57:43;;;;;;;;;;;;;;;21.50;38.88;95308.09;2033887;29;1257;-66
2022/04/04 02:58:44;;;;;;;;;;;;;;;21.50;38.80;95310.75;2033670;29;1543;-66
2022/04/04 02:59:46;;;;;;;;;;;;;;;21.50;38.90;95308.09;2033242;29;1627;-66
2022/04/04 03:00:47;;;;;;;;;;;;;;;21.50;38.92;95297.38;2029594;29;1620;-66
2022/04/04 03:01:49;;;;;;;;;;;;;;;21.50;38.96;95302.75;2033886;29;1903;-65
2022/04/04 03:02:54;;;;;;;;;;;;;;;21.51;38.90;95312.38;2033040;29;1543;-65
2022/04/04 03:03:56;;;;;;;;;;;;;;;20.16;28.11;95309.09;2033879;29;1560;-69
2022/04/04 03:04:58;;;;;;;;;;;;;;;16.73;28.08;95301.97;2032843;29;1633;-63
2022/04/04 03:05:59;;;;;;;;;;;;;;;15.42;30.38;95303.69;2033331;29;1723;-64
2022/04/04 03:07:01;;;;;;;;;;;;;;;14.64;30.61;95311.47;2033727;29;1120;-63
2022/04/04 03:08:04;;;;;;;;;;;;;;;13.98;30.60;95306.16;2033876;29;1228;-62
2022/04/04 03:09:06;;;;;;;;;;;;;;;13.47;31.35;95304.53;2033809;29;1712;-65
2022/04/04 03:10:08;;;;;;;;;;;;;;;13.32;31.58;95305.13;2033420;29;1924;-64
2022/04/04 03:11:10;;;;;;;;;;;;;;;13.12;31.25;95299.28;2033841;29;1625;-63
2022/04/04 03:12:11;;;;;;;;;;;;;;;12.97;31.93;95303.47;2029440;29;1208;-63
2022/04/04 03:13:13;;;;;;;;;;;;;;;12.88;31.43;95309.69;2032937;29;1443;-64
2022/04/04 03:14:14;;;;;;;;;;;;;;;12.63;31.33;95309.56;2033622;29;1625;-63
2022/04/04 03:15:18;;;;;;;;;;;;;;;12.54;31.21;95313.09;2033094;29;1569;-63
2022/04/04 03:16:19;;;;;;;;;;;;;;;12.32;31.72;95309.16;2032584;29;1533;-64
2022/04/04 03:17:21;;;;;;;;;;;;;;;12.36;31.50;95314.94;2030370;29;1991;-62
2022/04/04 03:18:22;;;;;;;;;;;;;;;12.25;31.14;95313.34;2025185;29;1122;-63
2022/04/04 03:19:24;;;;;;;;;;;;;;;12.27;31.72;95316.69;2025716;29;1033;-63
2022/04/04 03:20:26;;;;;;;;;;;;;;;12.05;31.93;95313.50;2033103;29;1525;-63
2022/04/04 03:21:28;;;;;;;;;;;;;;;12.66;31.82;95318.94;2033038;29;1978;-62
2022/04/04 03:22:30;;;;;;;;;;;;;;;13.30;30.51;95319.47;2021924;29;1120;-65
2022/04/04 03:23:32;;;;;;;;;;;;;;;13.62;29.94;95313.50;2027324;29;1729;-63
2022/04/04 03:24:34;;;;;;;;;;;;;;;13.75;29.49;95310.41;2033676;29;990;-62
2022/04/04 03:25:35;;;;;;;;;;;;;;;13.85;29.80;95313.72;2033786;29;1732;-62
2022/04/04 03:26:37;;;;;;;;;;;;;;;13.85;29.37;95319.00;2033944;29;1123;-63
2022/04/04 03:27:39;;;;;;;;;;;;;;;13.87;28.99;95318.84;2032900;29;2055;-62
2022/04/04 03:28:41;;;;;;;;;;;;;;;13.72;29.06;95316.03;2033775;29;2115;-62
2022/04/04 03:29:44;;;;;;;;;;;;;;;13.64;28.76;95316.81;2033340;29;1463;-63
2022/04/04 03:30:46;;;;;;;;;;;;;;;13.72;29.16;95319.47;2033717;29;1163;-62
2022/04/04 03:31:47;;;;;;;;;;;;;;;13.82;28.82;95319.34;2033102;29;1652;-65
2022/04/04 03:32:49;;;;;;;;;;;;;;;13.73;28.72;95318.47;2026350;29;1021;-63
2022/04/04 03:33:51;;;;;;;;;;;;;;;13.69;29.08;95324.28;2021659;29;1376;-63
2022/04/04 03:34:52;;;;;;;;;;;;;;;13.66;29.07;95325.41;2026185;29;1214;-63
2022/04/04 03:35:54;;;;;;;;;;;;;;;13.70;29.17;95331.19;2026697;29;1516;-62
2022/04/04 03:36:55;;;;;;;;;;;;;;;13.76;28.93;95333.19;2033499;29;1705;-64
2022/04/04 03:37:59;;;;;;;;;;;;;;;13.78;28.78;95341.78;2034116;29;1101;-63
2022/04/04 03:39:01;;;;;;;;;;;;;;;12.99;28.81;95333.16;2032649;29;1637;-63
2022/04/04 03:40:03;;;;;;;;;;;;;;;12.37;30.41;95335.03;2033452;29;1856;-63
2022/04/04 03:41:05;;;;;;;;;;;;;;;12.13;31.07;95341.72;2033672;29;1544;-65
2022/04/04 03:42:07;;;;;;;;;;;;;;;12.41;32.12;95339.88;2032875;29;1985;-62
2022/04/04 03:43:08;;;;;;;;;;;;;;;12.30;31.64;95341.91;2033300;29;1020;-64
2022/04/04 03:44:10;;;;;;;;;;;;;;;12.18;32.10;95341.28;2031255;29;1757;-66
2022/04/04 03:45:12;;;;;;;;;;;;;;;13.32;30.95;95342.09;2028001;29;1600;-63
2022/04/04 03:46:13;;;;;;;;;;;;;;;13.20;31.00;95350.41;2032392;29;1546;-62
2022/04/04 03:47:15;;;;;;;;;;;;;;;13.75;30.55;95344.75;2032502;29;1646;-63
2022/04/04 03:48:17;;;;;;;;;;;;;;;13.24;30.21;95346.50;2033388;29;1742;-66
2022/04/04 03:49:18;;;;;;;;;;;;;;;13.04;30.49;95346.72;2033678;29;1036;-64
2022/04/04 03:50:20;;;;;;;;;;;;;;;13.00;31.11;95345.34;2034024;29;1044;-62
2022/04/04 03:51:22;;;;;;;;;;;;;;;12.79;30.99;95339.63;2033576;29;1560;-61
2022/04/04 03:52:23;;;;;;;;;;;;;;;12.77;30.90;95344.22;2033721;29;1092;-68
2022/04/04 03:53:25;;;;;;;;;;;;;;;13.06;30.67;95347.41;2033771;29;1168;-62
2022/04/04 03:54:26;;;;;;;;;;;;;;;13.24;30.81;95351.78;2032579;29;1783;-65
2022/04/04 03:55:30;;;;;;;;;;;;;;;13.20;30.89;95350.41;2027259;29;1674;-63
2022/04/04 03:56:31;;;;;;;;;;;;;;;12.88;30.78;95357.16;2032125;29;1762;-62
2022/04/04 03:57:40;;;;;;;;;;;;;;;13.04;31.16;95357.28;2032814;29;1504;-62
2022/04/04 03:58:41;;;;;;;;;;;;;;;12.88;30.68;95351.88;2032807;29;1439;-61
2022/04/04 03:59:43;;;;;;;;;;;;;;;13.20;32.76;95355.69;2032705;29;1619;-61
2022/04/04 04:00:45;;;;;;;;;;;;;;;13.43;32.62;95351.53;2033832;29;1280;-62
2022/04/04 04:01:47;;;;;;;;;;;;;;;13.43;33.29;95355.97;2032498;29;1903;-63
2022/04/04 04:02:50;;;;;;;;;;;;;;;13.16;32.87;95361.28;2033376;29;1598;-62
2022/04/04 04:03:51;;;;;;;;;;;;;;;13.06;35.36;95360.59;2033971;29;1113;-62
2022/04/04 04:04:53;;;;;;;;;;;;;;;13.26;37.07;95360.34;2033513;29;1164;-61
2022/04/04 04:06:11;;;;;;;;;;;;;;;13.15;35.05;95358.81;2033643;29;1239;-62
2022/04/04 04:07:18;;;;;;;;;;;;;;;13.57;35.18;95364.16;2028885;29;1109;-62
2022/04/04 04:08:21;;;;;;;;;;;;;;;14.58;33.42;95362.38;2033247;29;1453;-64
2022/04/04 04:09:23;;;;;;;;;;;;;;;15.09;31.98;95355.06;2032442;29;1564;-62
2022/04/04 04:10:25;;;;;;;;;;;;;;;15.07;30.86;95367.63;2034946;29;1181;-62
2022/04/04 04:11:27;;;;;;;;;;;;;;;15.09;31.41;95376.25;2033288;29;1275;-62
2022/04/04 04:12:29;;;;;;;;;;;;;;;15.04;30.86;95373.28;2040445;29;1088;-63
2022/04/04 04:13:31;;;;;;;;;;;;;;;15.03;30.75;95367.16;2039869;29;1675;-67
2022/04/04 04:14:33;;;;;;;;;;;;;;;15.16;30.91;95369.28;2028417;29;1690;-62
2022/04/04 04:15:34;;;;;;;;;;;;;;;15.27;31.56;95368.09;2032572;29;1514;-62
2022/04/04 04:16:36;;;;;;;;;;;;;;;15.25;31.67;95380.66;2031630;29;1185;-62
2022/04/04 04:17:38;;;;;;;;;;;;;;;15.12;31.35;95379.38;2027587;29;1589;-65
2022/04/04 04:18:40;;;;;;;;;;;;;;;15.25;32.40;95381.50;2032614;29;1716;-62
2022/04/04 04:21:02;;;;;;;;;;;;;;;15.42;31.90;95383.13;2032547;29;1023;-62
2022/04/04 04:22:04;;;;;;;;;;;;;;;15.22;31.17;95379.16;2028939;29;1976;-63
2022/04/04 04:23:07;;;;;;;;;;;;;;;15.07;31.89;95388.81;2030812;29;1413;-64
2022/04/04 04:24:09;;;;;;;;;;;;;;;14.99;31.07;95388.81;2030676;29;1252;-62
2022/04/04 04:25:11;;;;;;;;;;;;;;;14.86;31.06;95392.81;2030244;29;1519;-62
2022/04/04 04:26:16;;;;;;;;;;;;;;;14.81;31.27;95389.81;2033016;29;1121;-63
2022/04/04 04:27:18;;;;;;;;;;;;;;;14.82;31.07;95391.47;2032804;29;1224;-62
2022/04/04 04:28:19;;;;;;;;;;;;;;;14.83;31.10;95393.16;2032406;29;1670;-64
2022/04/04 04:29:21;;;;;;;;;;;;;;;14.85;31.55;95393.81;2028155;29;1326;-62
2022/04/04 04:30:23;;;;;;;;;;;;;;;14.82;31.24;95388.81;2032865;29;2035;-64
2022/04/04 04:31:24;;;;;;;;;;;;;;;14.84;31.38;95400.06;2031453;29;1704;-62
2022/04/04 04:32:26;;;;;;;;;;;;;;;14.87;31.29;95389.16;2033352;29;1191;-63
2022/04/04 04:33:29;;;;;;;;;;;;;;;14.77;31.18;95385.88;2033324;29;1040;-62
2022/04/04 04:34:30;;;;;;;;;;;;;;;14.68;30.93;95390.34;2033298;29;1020;-63
2022/04/04 04:35:32;;;;;;;;;;;;;;;14.65;31.24;95395.09;2033367;29;1558;-64
2022/04/04 04:36:33;;;;;;;;;;;;;;;14.70;31.14;95398.91;2024568;29;1134;-63
2022/04/04 04:37:35;;;;;;;;;;;;;;;14.70;31.41;95403.38;2026260;29;1565;-65
2022/04/04 04:38:37;;;;;;;;;;;;;;;14.56;30.85;95404.00;2032380;29;1529;-63
2022/04/04 04:39:38;;;;;;;;;;;;;;;14.56;31.10;95404.00;2027599;29;1701;-65
2022/04/04 04:40:40;;;;;;;;;;;;;;;14.55;31.66;95405.84;2032514;29;1606;-65
2022/04/04 04:41:42;;;;;;;;;;;;;;;14.61;30.94;95410.47;2032589;29;1467;-68
2022/04/04 04:42:44;;;;;;;;;;;;;;;14.59;31.10;95409.78;2033510;29;1907;-64
2022/04/04 04:43:46;;;;;;;;;;;;;;;14.59;30.80;95412.44;2033559;29;1064;-65
2022/04/04 04:44:48;;;;;;;;;;;;;;;14.56;30.79;95417.22;2033449;29;1071;-65
2022/04/04 04:45:50;;;;;;;;;;;;;;;14.52;30.68;95412.28;2033051;29;963;-64
2022/04/04 04:46:52;;;;;;;;;;;;;;;14.50;30.81;95416.06;2033346;29;1005;-64
2022/04/04 04:47:54;;;;;;;;;;;;;;;14.48;30.79;95416.25;2033559;29;1024;-64
2022/04/04 04:48:56;;;;;;;;;;;;;;;14.44;30.69;95414.09;2032975;29;1144;-64
2022/04/04 04:49:58;;;;;;;;;;;;;;;14.42;31.11;95416.88;2033482;29;1016;-64
2022/04/04 04:51:00;;;;;;;;;;;;;;;14.35;30.91;95421.19;2028762;29;1819;-65
2022/04/04 04:52:02;;;;;;;;;;;;;;;14.37;30.87;95419.19;2032217;29;1049;-64
2022/04/04 04:53:04;;;;;;;;;;;;;;;14.33;31.05;95415.22;2032668;29;1105;-65
2022/04/04 04:54:06;;;;;;;;;;;;;;;14.37;30.56;95418.34;2033379;29;1052;-64
2022/04/04 04:55:08;;;;;;;;;;;;;;;14.39;31.32;95422.50;2033334;29;1045;-64
2022/04/04 04:56:09;;;;;;;;;;;;;;;14.37;31.08;95419.19;2033648;29;1049;-64
2022/04/04 04:57:11;;;;;;;;;;;;;;;14.39;30.67;95422.50;2032963;29;1011;-64
2022/04/04 04:58:13;;;;;;;;;;;;;;;14.39;31.18;95422.50;2033694;29;1561;-64
2022/04/04 04:59:14;;;;;;;;;;;;;;;14.35;30.76;95415.88;2033198;29;999;-65
2022/04/04 05:00:18;;;;;;;;;;;;;;;14.34;30.86;95418.69;2033308;29;1179;-67
2022/04/04 05:01:20;;;;;;;;;;;;;;;14.30;30.71;95419.00;2032928;29;1457;-65
2022/04/04 05:02:22;;;;;;;;;;;;;;;14.32;31.19;95425.97;2029129;29;1982;-65
2022/04/04 05:03:27;;;;;;;;;;;;;;;14.37;31.15;95418.34;2033443;29;1089;-65
2022/04/04 05:04:29;;;;;;;;;;;;;;;14.39;31.16;95426.97;2032706;29;1059;-65
2022/04/04 05:05:30;;;;;;;;;;;;;;;14.42;31.14;95427.44;2024677;29;1164;-65
2022/04/04 05:06:32;;;;;;;;;;;;;;;14.44;31.03;95425.47;2025330;29;1172;-65
2022/04/04 05:07:34;;;;;;;;;;;;;;;14.36;31.13;95422.00;2032522;29;1191;-64
2022/04/04 05:08:35;;;;;;;;;;;;;;;14.23;31.20;95422.47;2033097;29;2058;-65
2022/04/04 05:09:37;;;;;;;;;;;;;;;14.27;30.90;95415.88;2033302;29;982;-65
2022/04/04 05:10:39;;;;;;;;;;;;;;;14.22;30.73;95416.34;2034076;29;1109;-66
2022/04/04 05:11:40;;;;;;;;;;;;;;;14.17;31.21;95423.09;2034860;29;1184;-65
2022/04/04 05:12:42;;;;;;;;;;;;;;;14.57;30.74;95424.16;2030335;29;2358;-63
2022/04/04 05:13:43;;;;;;;;;;;;;;;15.43;29.75;95415.72;2034812;29;1182;-65
2022/04/04 05:14:45;;;;;;;;;;;;;;;16.07;29.26;95426.25;2034884;29;1064;-64
2022/04/04 05:15:46;;;;;;;;;;;;;;;16.57;28.72;95424.16;2034301;29;1105;-65
2022/04/04 05:16:48;;;;;;;;;;;;;;;16.95;28.54;95422.41;2035092;29;1209;-65
2022/04/04 05:17:52;;;;;;;;;;;;;;;17.22;28.30;95420.19;2034978;29;952;-64
2022/04/04 05:18:54;;;;;;;;;;;;;;;17.41;28.20;95422.31;2034737;29;1072;-65
2022/04/04 05:19:55;;;;;;;;;;;;;;;17.55;27.98;95424.16;2035158;29;984;-64
2022/04/04 05:20:58;;;;;;;;;;;;;;;17.71;27.82;95425.00;2034715;29;1171;-65
2022/04/04 05:21:59;;;;;;;;;;;;;;;17.81;27.91;95423.75;2035265;29;1044;-65
2022/04/04 05:23:01;;;;;;;;;;;;;;;17.91;27.80;95418.13;2034238;29;2320;-65
2022/04/04 05:24:03;;;;;;;;;;;;;;;17.99;27.66;95428.69;2030287;29;1112;-65
2022/04/04 05:25:04;;;;;;;;;;;;;;;18.07;27.41;95427.75;2034881;29;1168;-65
2022/04/04 05:26:06;;;;;;;;;;;;;;;18.12;27.53;95425.34;2034789;29;1172;-65
2022/04/04 05:27:08;;;;;;;;;;;;;;;18.16;27.69;95428.47;2035004;29;1168;-65
2022/04/04 05:28:10;;;;;;;;;;;;;;;18.23;27.53;95434.69;2034912;29;1043;-65
2022/04/04 05:29:12;;;;;;;;;;;;;;;18.26;27.73;95436.97;2034362;29;1179;-65
2022/04/04 05:30:13;;;;;;;;;;;;;;;18.30;27.65;95433.75;2034650;29;1148;-65
2022/04/04 05:31:15;;;;;;;;;;;;;;;18.35;27.66;95441.16;2034739;29;1092;-65